createdAt,value
2022-11-22T00:00:28.847Z,4.93
2022-11-22T00:02:58.468Z,5.00
2022-11-22T00:05:26.744Z,5.30
2022-11-22T00:07:54.986Z,5.17
2022-11-22T00:10:23.250Z,5.63
2022-11-22T00:12:51.481Z,5.60
2022-11-22T00:15:19.817Z,6.00
2022-11-22T00:17:48.045Z,6.13
2022-11-22T00:20:17.857Z,5.77
2022-11-22T00:22:46.204Z,5.30
2022-11-22T00:25:15.497Z,5.93
2022-11-22T00:27:43.730Z,5.80
2022-11-22T00:30:12.448Z,6.13
2022-11-22T00:32:41.212Z,6.10
2022-11-22T00:35:10.657Z,6.17
2022-11-22T00:37:40.317Z,6.10
2022-11-22T00:40:09.581Z,6.23
2022-11-22T00:42:37.710Z,6.20
2022-11-22T00:45:06.713Z,6.40
2022-11-22T00:47:34.941Z,6.03
2022-11-22T00:50:03.192Z,5.93
2022-11-22T00:52:31.463Z,6.60
2022-11-22T00:55:01.172Z,6.40
2022-11-22T00:57:29.565Z,5.73
2022-11-22T00:59:57.786Z,6.33
2022-11-22T01:02:26.083Z,6.10
2022-11-22T01:04:54.353Z,5.80
2022-11-22T01:07:22.736Z,6.13
2022-11-22T01:09:51.015Z,5.97
2022-11-22T01:12:20.850Z,5.77
2022-11-22T01:14:49.210Z,6.10
2022-11-22T01:17:18.520Z,5.67
2022-11-22T01:19:47.129Z,6.10
2022-11-22T01:22:15.367Z,5.60
2022-11-22T01:24:43.695Z,5.80
2022-11-22T01:27:11.979Z,5.70
2022-11-22T01:29:41.729Z,6.03
2022-11-22T01:32:09.941Z,5.80
2022-11-22T01:34:38.200Z,6.20
2022-11-22T01:37:06.927Z,6.00
2022-11-22T01:39:35.153Z,5.67
2022-11-22T01:42:03.637Z,5.80
2022-11-22T01:44:33.447Z,5.47
2022-11-22T01:47:07.804Z,5.40
2022-11-22T01:49:40.636Z,5.27
2022-11-22T01:52:12.825Z,5.87
2022-11-22T01:54:43.639Z,5.47
2022-11-22T01:57:16.411Z,6.10
2022-11-22T02:00:01.461Z,5.43
2022-11-22T02:02:36.241Z,6.20
2022-11-22T02:05:07.265Z,5.73
2022-11-22T02:07:41.269Z,5.37
2022-11-22T02:10:10.614Z,5.50
2022-11-22T02:12:39.061Z,5.83
2022-11-22T02:15:08.139Z,5.90
2022-11-22T02:17:38.221Z,5.80
2022-11-22T02:20:08.691Z,5.40
2022-11-22T02:22:43.701Z,5.63
2022-11-22T02:25:19.325Z,5.47
2022-11-22T02:27:49.889Z,5.30
2022-11-22T02:30:18.768Z,5.33
2022-11-22T02:32:47.267Z,5.27
2022-11-22T02:35:20.807Z,4.97
2022-11-22T02:37:52.577Z,4.90
2022-11-22T02:40:21.618Z,4.80
2022-11-22T02:42:56.780Z,5.10
2022-11-22T02:45:25.191Z,4.80
2022-11-22T02:47:53.384Z,5.00
2022-11-22T02:50:22.146Z,4.87
2022-11-22T02:52:50.391Z,4.60
2022-11-22T02:55:18.669Z,4.47
2022-11-22T02:57:46.905Z,4.23
2022-11-22T03:00:17.732Z,3.90
2022-11-22T03:02:45.993Z,3.97
2022-11-22T03:05:14.368Z,3.70
2022-11-22T03:07:42.725Z,3.67
2022-11-22T03:10:11.791Z,4.07
2022-11-22T03:13:04.821Z,3.83
2022-11-22T03:15:34.397Z,3.70
2022-11-22T03:18:04.080Z,4.13
2022-11-22T03:20:34.014Z,4.30
2022-11-22T03:23:02.464Z,4.03
2022-11-22T03:25:31.266Z,4.50
2022-11-22T03:28:00.094Z,4.20
2022-11-22T03:30:28.333Z,4.17
2022-11-22T03:32:58.265Z,4.33
2022-11-22T03:35:26.505Z,4.63
2022-11-22T03:37:54.691Z,4.10
2022-11-22T03:40:22.888Z,4.10
2022-11-22T03:42:51.083Z,4.07
2022-11-22T03:45:20.455Z,3.97
2022-11-22T03:47:48.608Z,3.83
2022-11-22T03:50:18.522Z,4.00
2022-11-22T03:52:46.676Z,4.07
2022-11-22T03:55:14.906Z,3.90
2022-11-22T03:57:43.143Z,3.80
2022-11-22T04:00:37.583Z,4.00
2022-11-22T04:03:05.801Z,3.70
2022-11-22T04:05:36.088Z,3.70
2022-11-22T04:08:04.461Z,3.57
2022-11-22T04:10:32.639Z,4.50
2022-11-22T04:13:01.280Z,3.87
2022-11-22T04:15:28.507Z,4.03
2022-11-22T04:17:56.731Z,4.00
2022-11-22T04:20:45.097Z,3.77
2022-11-22T04:23:17.248Z,3.80
2022-11-22T04:25:46.347Z,3.93
2022-11-22T04:28:15.768Z,3.80
2022-11-22T04:31:02.141Z,3.83
2022-11-22T04:33:30.900Z,3.73
2022-11-22T04:35:59.111Z,3.73
2022-11-22T04:38:29.053Z,3.70
2022-11-22T04:40:57.268Z,3.37
2022-11-22T04:43:44.572Z,3.30
2022-11-22T04:46:14.092Z,3.63
2022-11-22T04:48:43.210Z,3.60
2022-11-22T04:51:34.015Z,3.40
2022-11-22T04:54:03.581Z,3.50
2022-11-22T04:56:31.808Z,3.40
2022-11-22T04:59:00.040Z,3.63
2022-11-22T05:01:28.277Z,3.60
2022-11-22T05:03:56.530Z,3.43
2022-11-22T05:06:24.761Z,3.13
2022-11-22T05:08:52.934Z,3.90
2022-11-22T05:11:22.498Z,3.90
2022-11-22T05:13:50.696Z,3.80
2022-11-22T05:16:18.945Z,4.03
2022-11-22T05:18:59.040Z,4.27
2022-11-22T05:21:28.682Z,3.57
2022-11-22T05:23:55.993Z,3.90
2022-11-22T05:26:27.151Z,4.07
2022-11-22T05:28:56.847Z,4.37
2022-11-22T05:31:27.549Z,4.00
2022-11-22T05:33:57.480Z,4.33
2022-11-22T05:36:26.848Z,3.97
2022-11-22T05:38:55.557Z,4.23
2022-11-22T05:41:25.146Z,4.30
2022-11-22T05:43:56.336Z,4.17
2022-11-22T05:46:26.244Z,4.37
2022-11-22T05:48:56.117Z,4.10
2022-11-22T05:51:30.652Z,4.20
2022-11-22T05:54:02.098Z,4.90
2022-11-22T05:56:31.788Z,4.70
2022-11-22T05:58:59.991Z,5.00
2022-11-22T06:01:28.196Z,4.50
2022-11-22T06:03:56.401Z,4.80
2022-11-22T06:06:24.550Z,4.57
2022-11-22T06:08:52.880Z,4.40
2022-11-22T06:11:22.518Z,4.10
2022-11-22T06:13:54.688Z,4.80
2022-11-22T06:16:23.290Z,4.50
2022-11-22T06:18:51.918Z,4.50
2022-11-22T06:21:23.236Z,4.20
2022-11-22T06:23:51.939Z,4.27
2022-11-22T06:26:21.417Z,4.40
2022-11-22T06:28:51.895Z,4.60
2022-11-22T06:31:21.804Z,4.50
2022-11-22T06:33:50.350Z,4.53
2022-11-22T06:36:20.549Z,5.07
2022-11-22T06:38:49.130Z,4.93
2022-11-22T06:41:18.857Z,4.90
2022-11-22T06:43:53.938Z,4.20
2022-11-22T06:46:24.177Z,4.40
2022-11-22T06:48:52.654Z,5.37
2022-11-22T06:51:22.897Z,5.43
2022-11-22T06:53:51.876Z,4.57
2022-11-22T06:56:21.743Z,5.27
2022-11-22T06:58:52.677Z,5.20
2022-11-22T07:01:22.694Z,5.50
2022-11-22T07:03:51.472Z,5.17
2022-11-22T07:06:20.558Z,5.20
2022-11-22T07:08:48.947Z,5.33
2022-11-22T07:11:18.923Z,5.70
2022-11-22T07:13:48.201Z,5.80
2022-11-22T07:16:19.342Z,5.37
2022-11-22T07:18:48.127Z,5.53
2022-11-22T07:21:18.451Z,5.47
2022-11-22T07:23:48.488Z,5.23
2022-11-22T07:26:18.020Z,5.20
2022-11-22T07:28:46.741Z,5.53
2022-11-22T07:31:17.667Z,4.83
2022-11-22T07:33:46.255Z,5.73
2022-11-22T07:36:17.136Z,5.63
2022-11-22T07:38:45.716Z,6.03
2022-11-22T07:41:14.649Z,5.53
2022-11-22T07:43:43.461Z,5.17
2022-11-22T07:46:22.083Z,5.23
2022-11-22T07:48:50.651Z,6.20
2022-11-22T07:51:19.538Z,4.97
2022-11-22T07:53:48.026Z,4.80
2022-11-22T07:56:22.039Z,5.20
2022-11-22T07:58:50.245Z,4.50
2022-11-22T08:01:22.289Z,4.67
2022-11-22T08:03:50.547Z,4.60
2022-11-22T08:06:18.724Z,4.03
2022-11-22T08:08:46.863Z,3.87
2022-11-22T08:11:15.105Z,3.83
2022-11-22T08:13:44.542Z,3.50
2022-11-22T08:16:14.619Z,3.70
2022-11-22T08:18:48.445Z,3.70
2022-11-22T08:21:18.467Z,4.10
2022-11-22T08:23:48.012Z,4.20
2022-11-22T08:26:18.398Z,4.03
2022-11-22T08:28:46.827Z,4.07
2022-11-22T08:31:18.977Z,3.90
2022-11-22T08:33:49.303Z,4.00
2022-11-22T08:36:17.487Z,3.60
2022-11-22T08:38:45.799Z,3.63
2022-11-22T08:41:14.127Z,4.20
2022-11-22T08:43:42.291Z,4.20
2022-11-22T08:46:10.695Z,4.27
2022-11-22T08:48:39.490Z,4.00
2022-11-22T08:51:11.195Z,5.17
2022-11-22T08:53:41.362Z,4.27
2022-11-22T08:56:11.953Z,4.70
2022-11-22T08:58:40.179Z,4.10
2022-11-22T09:01:10.118Z,4.77
2022-11-22T09:03:38.967Z,4.43
2022-11-22T09:09:15.626Z,4.27
2022-11-22T09:11:46.382Z,4.30
2022-11-22T09:14:14.758Z,3.97
2022-11-22T09:16:42.933Z,4.33
2022-11-22T09:19:11.215Z,3.57
2022-11-22T09:21:41.856Z,4.00
2022-11-22T09:24:10.056Z,4.40
2022-11-22T09:26:38.290Z,3.87
2022-11-22T09:29:06.451Z,4.00
2022-11-22T09:31:34.617Z,3.97
2022-11-22T09:34:02.801Z,3.57
2022-11-22T09:36:30.992Z,5.50
2022-11-22T09:39:27.493Z,4.70
2022-11-22T09:42:30.952Z,3.50
2022-11-22T09:45:23.091Z,3.93
2022-11-22T09:48:00.698Z,4.50
2022-11-22T09:50:40.901Z,4.10
2022-11-22T09:53:15.202Z,3.43
2022-11-22T09:55:48.979Z,3.90
2022-11-22T09:58:27.080Z,3.67
2022-11-22T10:00:58.890Z,5.20
2022-11-22T10:03:35.251Z,3.57
2022-11-22T10:06:09.312Z,5.13
2022-11-22T10:08:42.718Z,4.20
2022-11-22T10:11:18.555Z,8.20
2022-11-22T10:13:54.391Z,5.70
2022-11-22T10:16:28.365Z,4.10
2022-11-22T10:19:00.857Z,6.37
2022-11-22T10:21:29.057Z,4.27
2022-11-22T10:23:57.355Z,4.23
2022-11-22T10:26:29.752Z,4.50
2022-11-22T10:29:23.231Z,5.17
2022-11-22T10:31:58.735Z,7.83
2022-11-22T10:34:36.885Z,3.67
2022-11-22T10:37:14.576Z,3.53
2022-11-22T10:40:01.322Z,2.70
2022-11-22T10:43:02.641Z,2.37
2022-11-22T10:45:35.035Z,5.73
2022-11-22T10:48:14.891Z,2.90
2022-11-22T10:50:57.400Z,3.90
2022-11-22T10:53:40.979Z,5.47
2022-11-22T10:56:17.188Z,3.07
2022-11-22T10:58:58.496Z,4.80
2022-11-22T11:01:32.827Z,2.60
2022-11-22T11:04:05.505Z,3.30
2022-11-22T11:07:04.812Z,3.17
2022-11-22T11:10:09.724Z,3.63
2022-11-22T11:12:38.492Z,4.80
2022-11-22T11:15:18.028Z,5.53
2022-11-22T11:17:50.472Z,3.80
2022-11-22T11:20:26.300Z,4.37
2022-11-22T11:25:45.215Z,2.70
2022-11-22T11:29:05.929Z,2.80
2022-11-22T11:31:45.760Z,2.47
2022-11-22T11:34:21.718Z,3.40
2022-11-22T11:36:51.191Z,2.87
2022-11-22T11:39:21.735Z,2.90
2022-11-22T11:41:50.778Z,2.20
2022-11-22T11:44:29.119Z,2.40
2022-11-22T11:46:59.627Z,2.70
2022-11-22T11:49:29.733Z,2.23
2022-11-22T11:51:59.795Z,1.83
2022-11-22T11:54:40.348Z,2.10
2022-11-22T11:57:14.393Z,2.03
2022-11-22T11:59:46.361Z,2.60
2022-11-22T12:02:20.815Z,2.17
2022-11-22T12:04:52.645Z,2.13
2022-11-22T12:07:23.649Z,2.07
2022-11-22T12:09:53.597Z,2.23
2022-11-22T12:12:37.062Z,2.00
2022-11-22T12:15:13.959Z,2.30
2022-11-22T12:17:53.862Z,1.80
2022-11-22T12:20:27.040Z,1.80
2022-11-22T12:23:05.908Z,2.03
2022-11-22T12:25:36.991Z,1.90
2022-11-22T12:28:16.376Z,2.17
2022-11-22T12:30:46.595Z,1.80
2022-11-22T12:33:21.703Z,2.30
2022-11-22T12:35:54.748Z,1.90
2022-11-22T12:38:27.998Z,1.97
2022-11-22T12:40:59.292Z,2.20
2022-11-22T12:43:31.298Z,1.93
2022-11-22T12:46:05.802Z,1.63
2022-11-22T12:48:44.564Z,2.00
2022-11-22T12:51:27.677Z,1.63
2022-11-22T12:54:02.770Z,2.40
2022-11-22T12:56:36.379Z,1.90
2022-11-22T12:59:12.680Z,1.60
2022-11-22T13:01:47.144Z,1.90
2022-11-22T13:04:22.459Z,1.97
2022-11-22T13:06:56.364Z,1.67
2022-11-22T13:09:33.321Z,2.07
2022-11-22T13:12:06.508Z,2.40
2022-11-22T13:14:38.279Z,1.93
2022-11-22T13:17:10.153Z,2.30
2022-11-22T13:19:46.785Z,2.00
2022-11-22T13:22:21.478Z,2.00
2022-11-22T13:25:18.997Z,1.70
2022-11-22T13:27:50.497Z,2.27
2022-11-22T13:30:20.576Z,1.93
2022-11-22T13:32:52.765Z,2.30
2022-11-22T13:35:30.709Z,2.20
2022-11-22T13:38:01.297Z,2.63
2022-11-22T13:40:32.562Z,1.90
2022-11-22T13:43:33.217Z,2.10
2022-11-22T13:46:04.005Z,2.30
2022-11-22T13:49:14.924Z,2.20
2022-11-22T13:51:57.812Z,1.80
2022-11-22T13:55:04.319Z,2.17
2022-11-22T13:57:35.714Z,2.10
2022-11-22T14:00:47.401Z,2.10
2022-11-22T14:03:40.913Z,2.27
2022-11-22T14:06:30.648Z,2.00
2022-11-22T14:09:34.223Z,2.77
2022-11-22T14:12:19.545Z,2.50
2022-11-22T14:15:03.109Z,2.53
2022-11-22T14:17:41.847Z,2.00
2022-11-22T14:20:23.588Z,2.10
2022-11-22T14:23:00.190Z,2.23
2022-11-22T14:25:48.188Z,2.50
2022-11-22T14:28:34.100Z,2.30
2022-11-22T14:31:14.358Z,2.07
2022-11-22T14:34:15.985Z,2.40
2022-11-22T14:36:44.715Z,2.53
2022-11-22T14:39:47.304Z,2.10
2022-11-22T14:42:49.029Z,2.27
2022-11-22T14:45:23.595Z,2.60
2022-11-22T14:48:02.675Z,2.40
2022-11-22T14:50:39.642Z,2.13
2022-11-22T14:53:21.811Z,2.30
2022-11-22T14:55:53.414Z,2.20
2022-11-22T14:58:25.599Z,2.40
2022-11-22T15:01:26.889Z,2.60
2022-11-22T15:09:11.520Z,2.47
2022-11-22T15:09:13.539Z,2.40
2022-11-22T15:11:28.469Z,2.50
2022-11-22T15:14:23.208Z,3.07
2022-11-22T15:57:52.603Z,3.00
2022-11-22T16:00:24.335Z,2.67
2022-11-22T16:02:55.718Z,2.80
2022-11-22T16:06:05.510Z,3.27
2022-11-22T16:08:19.713Z,3.13
2022-11-22T16:10:51.021Z,3.13
2022-11-22T16:13:30.171Z,3.10
2022-11-22T16:16:17.253Z,3.27
2022-11-22T16:18:48.295Z,3.27
2022-11-22T16:21:55.900Z,3.40
2022-11-22T16:24:29.255Z,3.80
2022-11-22T16:26:59.469Z,3.40
2022-11-22T16:29:32.140Z,3.97
2022-11-22T16:32:26.411Z,3.10
2022-11-22T16:35:08.429Z,2.97
2022-11-22T16:37:47.833Z,3.57
2022-11-22T16:40:19.425Z,3.67
2022-11-22T16:42:47.634Z,3.10
2022-11-22T16:45:41.534Z,3.30
2022-11-22T16:48:31.388Z,3.67
2022-11-22T16:51:03.531Z,4.33
2022-11-22T16:53:38.991Z,3.73
2022-11-22T16:56:09.056Z,3.80
2022-11-22T16:58:37.794Z,4.40
2022-11-22T17:01:35.118Z,3.93
2022-11-22T17:04:05.009Z,3.60
2022-11-22T17:06:58.362Z,4.37
2022-11-22T17:09:26.631Z,3.33
2022-11-22T17:11:56.233Z,4.80
2022-11-22T17:14:24.427Z,4.10
2022-11-22T17:16:52.634Z,3.90
2022-11-22T17:23:33.140Z,4.07
2022-11-22T17:26:07.353Z,5.00
2022-11-22T17:28:37.104Z,4.20
2022-11-22T17:31:13.219Z,3.90
2022-11-22T17:33:41.694Z,4.37
2022-11-22T17:36:20.279Z,3.93
2022-11-22T17:38:48.509Z,4.30
2022-11-22T17:41:16.951Z,3.97
2022-11-22T17:43:46.550Z,4.67
2022-11-22T17:46:14.988Z,5.10
2022-11-22T17:48:43.395Z,5.40
2022-11-22T17:51:13.832Z,5.80
2022-11-22T17:53:42.079Z,5.57
2022-11-22T17:56:11.817Z,6.00
2022-11-22T17:58:40.371Z,6.07
2022-11-22T18:01:12.395Z,5.73
2022-11-22T18:03:41.244Z,5.00
2022-11-22T18:06:10.484Z,5.40
2022-11-22T18:08:45.242Z,6.57
2022-11-22T18:11:15.715Z,6.93
2022-11-22T18:13:45.345Z,6.30
2022-11-22T18:16:18.054Z,6.70
2022-11-22T18:19:02.050Z,7.50
2022-11-22T18:21:32.310Z,7.83
2022-11-22T18:24:01.283Z,7.23
2022-11-22T18:26:45.395Z,7.20
2022-11-22T18:32:04.227Z,6.90
2022-11-22T18:34:32.463Z,6.80
2022-11-22T18:37:03.016Z,6.93
2022-11-22T18:39:33.578Z,7.27
2022-11-22T18:42:02.199Z,7.20
2022-11-22T18:44:30.504Z,7.43
2022-11-22T18:46:58.708Z,7.70
2022-11-22T18:49:28.758Z,7.20
2022-11-22T18:51:57.166Z,7.43
2022-11-22T18:54:25.547Z,8.27
2022-11-22T18:56:53.733Z,7.80
2022-11-22T18:59:21.908Z,7.83
2022-11-22T19:01:50.118Z,7.17
2022-11-22T19:04:18.405Z,7.63
2022-11-22T19:06:48.034Z,7.30
2022-11-22T19:09:16.213Z,6.53
2022-11-22T19:11:44.455Z,7.67
2022-11-22T19:14:12.653Z,7.43
2022-11-22T19:16:40.824Z,6.93
2022-11-22T19:19:11.677Z,7.40
2022-11-22T19:21:40.093Z,7.67
2022-11-22T19:24:10.021Z,7.17
2022-11-22T19:26:38.633Z,6.63
2022-11-22T19:29:06.915Z,6.90
2022-11-22T19:31:36.674Z,7.07
2022-11-22T19:38:54.777Z,7.40
2022-11-22T19:41:25.432Z,7.37
2022-11-22T19:43:53.744Z,6.70
2022-11-22T19:46:21.965Z,6.93
2022-11-22T19:48:52.846Z,6.73
2022-11-22T19:51:21.723Z,6.57
2022-11-22T19:53:53.281Z,6.63
2022-11-22T19:56:21.940Z,7.40
2022-11-22T19:58:53.478Z,7.70
2022-11-22T20:01:23.267Z,19.77
2022-11-22T20:03:54.044Z,7.63
2022-11-22T20:06:50.482Z,6.70
2022-11-22T20:09:19.224Z,6.33
2022-11-22T20:11:51.268Z,6.50
2022-11-22T20:14:47.406Z,6.67
2022-11-22T20:17:20.407Z,6.70
2022-11-22T20:20:17.853Z,6.27
2022-11-22T20:23:11.682Z,6.33
2022-11-22T20:25:40.689Z,6.80
2022-11-22T20:28:34.315Z,7.77
2022-11-22T20:31:08.364Z,6.70
2022-11-22T20:33:38.118Z,6.20
2022-11-22T20:36:08.902Z,7.13
2022-11-22T20:38:47.760Z,6.97
2022-11-22T20:41:18.018Z,7.30
2022-11-22T20:43:46.802Z,8.13
2022-11-22T20:46:17.892Z,7.00
2022-11-22T20:48:50.952Z,7.50
2022-11-22T20:51:21.029Z,6.37
2022-11-22T20:53:49.445Z,6.83
2022-11-22T20:56:18.352Z,7.00
2022-11-22T20:58:46.837Z,7.30
2022-11-22T21:01:18.395Z,7.17
2022-11-22T21:03:47.029Z,6.67
2022-11-22T21:06:16.528Z,7.07
2022-11-22T21:08:45.825Z,6.90
2022-11-22T21:11:15.985Z,6.70
2022-11-22T21:13:45.477Z,6.10
2022-11-22T21:16:23.301Z,8.67
2022-11-22T21:18:52.979Z,6.70
2022-11-22T21:21:23.714Z,6.27
2022-11-22T21:23:53.212Z,5.90
2022-11-22T21:26:21.738Z,6.80
2022-11-22T21:28:50.615Z,6.43
2022-11-22T21:31:21.095Z,6.77
2022-11-22T21:33:49.801Z,6.63
2022-11-22T21:36:18.850Z,6.90
2022-11-22T21:38:47.322Z,6.43
2022-11-22T21:41:38.726Z,7.03
2022-11-22T21:44:05.957Z,6.20
2022-11-22T21:46:35.569Z,5.53
2022-11-22T21:49:03.763Z,5.50
2022-11-22T21:51:32.500Z,5.27
2022-11-22T21:54:01.739Z,5.33
2022-11-22T21:56:30.556Z,5.83
2022-11-22T21:58:59.236Z,5.10
2022-11-22T22:01:27.919Z,5.53
2022-11-22T22:03:57.596Z,5.13
2022-11-22T22:06:26.115Z,5.70
2022-11-22T22:08:54.319Z,5.63
2022-11-22T22:11:23.016Z,5.20
2022-11-22T22:13:52.840Z,5.80
2022-11-22T22:16:26.035Z,5.27
2022-11-22T22:18:55.392Z,5.60
2022-11-22T22:21:25.034Z,5.30
2022-11-22T22:23:57.671Z,6.00
2022-11-22T22:26:25.928Z,5.37
2022-11-22T22:28:54.474Z,5.80
2022-11-22T22:31:23.973Z,5.27
2022-11-22T22:33:55.283Z,5.57
2022-11-22T22:36:26.581Z,5.33
2022-11-22T22:38:58.231Z,5.37
2022-11-22T22:41:26.439Z,5.23
2022-11-22T22:43:54.693Z,5.30
2022-11-22T22:46:24.832Z,5.20
2022-11-22T22:48:54.778Z,5.97
2022-11-22T22:51:31.990Z,5.20
2022-11-22T22:54:01.146Z,5.23
2022-11-22T22:56:30.870Z,5.40
2022-11-22T22:59:00.952Z,5.53
2022-11-22T23:01:31.485Z,5.43
2022-11-22T23:04:01.868Z,5.80
2022-11-22T23:06:33.302Z,5.43
2022-11-22T23:09:02.104Z,5.60
2022-11-22T23:11:50.038Z,5.67
2022-11-22T23:14:20.131Z,5.67
2022-11-22T23:16:50.232Z,5.67
2022-11-22T23:19:22.999Z,5.50
2022-11-22T23:21:53.150Z,6.37
2022-11-22T23:24:21.424Z,5.80
2022-11-22T23:26:49.706Z,5.50
2022-11-22T23:29:18.012Z,5.40
2022-11-22T23:31:46.809Z,5.37
2022-11-22T23:34:15.143Z,5.10
2022-11-22T23:36:43.331Z,4.87
2022-11-22T23:39:12.994Z,5.67
2022-11-22T23:41:41.190Z,5.07
2022-11-22T23:44:09.498Z,5.20
2022-11-22T23:46:37.718Z,4.60
2022-11-22T23:49:06.542Z,4.47
2022-11-22T23:51:36.440Z,4.40
2022-11-22T23:54:06.847Z,4.43
2022-11-22T23:56:37.155Z,4.70
2022-11-22T23:59:06.118Z,4.83
